createdAt,value
2022-12-10T00:01:30.449Z,18.38
2022-12-10T00:03:33.369Z,17.55
2022-12-10T00:05:36.669Z,19.13
2022-12-10T00:07:39.509Z,16.95
2022-12-10T00:09:42.329Z,17.63
2022-12-10T00:11:45.523Z,17.42
2022-12-10T00:13:49.943Z,17.42
2022-12-10T00:15:52.787Z,18.15
2022-12-10T00:17:57.037Z,17.80
2022-12-10T00:19:59.854Z,18.48
2022-12-10T00:22:02.572Z,17.20
2022-12-10T00:24:06.792Z,15.90
2022-12-10T00:26:11.417Z,17.45
2022-12-10T00:28:14.307Z,19.13
2022-12-10T00:30:17.579Z,17.27
2022-12-10T00:32:20.412Z,18.50
2022-12-10T00:34:25.426Z,17.98
2022-12-10T00:36:30.949Z,20.08
2022-12-10T00:38:35.384Z,18.95
2022-12-10T00:40:38.190Z,18.00
2022-12-10T00:42:41.000Z,19.55
2022-12-10T00:44:43.781Z,18.55
2022-12-10T00:46:46.733Z,18.50
2022-12-10T00:48:49.579Z,18.98
2022-12-10T00:51:02.597Z,20.15
2022-12-10T00:53:05.418Z,19.17
2022-12-10T00:55:09.058Z,18.60
2022-12-10T00:57:11.892Z,19.40
2022-12-10T00:59:14.689Z,22.05
2022-12-10T01:01:19.977Z,19.27
2022-12-10T01:03:22.818Z,20.13
2022-12-10T01:05:26.702Z,20.10
2022-12-10T01:07:30.922Z,20.20
2022-12-10T01:09:33.701Z,20.55
2022-12-10T01:11:39.048Z,21.05
2022-12-10T01:13:42.467Z,19.65
2022-12-10T01:15:45.309Z,19.70
2022-12-10T01:17:48.210Z,19.20
2022-12-10T01:19:51.125Z,18.23
2022-12-10T01:21:54.930Z,18.90
2022-12-10T01:24:00.210Z,20.98
2022-12-10T01:26:04.769Z,20.15
2022-12-10T01:28:07.551Z,19.90
2022-12-10T01:30:12.004Z,20.80
2022-12-10T01:32:14.799Z,20.48
2022-12-10T01:34:17.533Z,21.30
2022-12-10T01:36:22.870Z,20.42
2022-12-10T01:38:25.675Z,19.52
2022-12-10T01:40:31.344Z,21.77
2022-12-10T01:42:34.170Z,20.23
2022-12-10T01:45:02.023Z,21.38
2022-12-10T01:47:05.326Z,20.15
2022-12-10T01:49:11.017Z,20.92
2022-12-10T01:51:15.722Z,21.85
2022-12-10T01:53:18.683Z,20.88
2022-12-10T01:55:45.386Z,21.17
2022-12-10T01:57:49.901Z,19.90
2022-12-10T01:59:56.092Z,20.73
2022-12-10T02:02:08.068Z,21.10
2022-12-10T02:04:22.530Z,22.60
2022-12-10T02:06:44.105Z,22.43
2022-12-10T02:08:58.855Z,19.10
2022-12-10T02:11:14.613Z,21.98
2022-12-10T02:13:24.797Z,21.33
2022-12-10T02:15:32.500Z,21.15
2022-12-10T02:17:40.731Z,23.85
2022-12-10T02:20:02.126Z,21.67
2022-12-10T02:22:07.092Z,21.35
2022-12-10T02:24:16.203Z,22.02
2022-12-10T02:26:26.223Z,22.88
2022-12-10T02:28:39.042Z,21.17
2022-12-10T02:30:47.797Z,23.05
2022-12-10T02:32:52.864Z,22.67
2022-12-10T02:35:02.501Z,21.23
2022-12-10T02:37:15.131Z,21.52
2022-12-10T02:39:23.114Z,20.45
2022-12-10T02:41:35.003Z,21.92
2022-12-10T02:43:38.735Z,22.30
2022-12-10T02:45:45.602Z,21.55
2022-12-10T02:47:53.448Z,22.35
2022-12-10T02:49:58.647Z,21.35
2022-12-10T02:52:10.054Z,21.00
2022-12-10T02:54:49.175Z,21.70
2022-12-10T02:57:02.652Z,20.92
2022-12-10T02:59:18.790Z,20.98
2022-12-10T03:01:32.680Z,20.48
2022-12-10T03:03:45.341Z,21.67
2022-12-10T03:05:59.804Z,21.35
2022-12-10T03:08:10.570Z,21.55
2022-12-10T03:10:20.513Z,20.98
2022-12-10T03:12:30.897Z,21.42
2022-12-10T03:14:35.513Z,22.48
2022-12-10T03:16:44.542Z,22.55
2022-12-10T03:18:51.823Z,22.50
2022-12-10T03:20:58.980Z,22.85
2022-12-10T03:23:03.770Z,22.80
2022-12-10T03:25:08.717Z,22.88
2022-12-10T03:29:21.869Z,21.83
2022-12-10T03:31:25.766Z,21.27
2022-12-10T03:33:31.150Z,22.27
2022-12-10T03:35:35.225Z,22.38
2022-12-10T03:37:38.878Z,22.23
2022-12-10T03:39:43.318Z,20.88
2022-12-10T03:41:46.604Z,22.88
2022-12-10T03:43:57.271Z,22.02
2022-12-10T03:46:00.163Z,20.88
2022-12-10T03:48:02.993Z,22.42
2022-12-10T03:50:08.717Z,22.52
2022-12-10T03:52:12.181Z,21.90
2022-12-10T03:54:14.949Z,23.10
2022-12-10T03:56:17.858Z,22.05
2022-12-10T03:58:20.778Z,22.73
2022-12-10T04:00:23.622Z,20.73
2022-12-10T04:02:26.366Z,20.73
2022-12-10T04:04:29.362Z,20.85
2022-12-10T04:06:33.785Z,22.50
2022-12-10T04:08:36.241Z,22.10
2022-12-10T04:10:39.041Z,21.60
2022-12-10T04:12:41.920Z,22.73
2022-12-10T04:15:02.322Z,23.23
2022-12-10T04:17:04.143Z,20.98
2022-12-10T04:19:09.462Z,23.27
2022-12-10T04:21:38.968Z,23.25
2022-12-10T04:24:00.847Z,22.65
2022-12-10T04:26:35.999Z,23.38
2022-12-10T04:28:38.760Z,23.60
2022-12-10T04:30:41.568Z,22.92
2022-12-10T04:32:44.417Z,23.50
2022-12-10T04:34:47.337Z,22.83
2022-12-10T04:36:51.003Z,23.80
2022-12-10T04:38:55.163Z,23.50
2022-12-10T04:41:01.008Z,22.25
2022-12-10T04:43:03.773Z,23.42
2022-12-10T04:45:07.749Z,22.42
2022-12-10T04:47:12.130Z,23.27
2022-12-10T04:49:15.870Z,22.77
2022-12-10T04:51:18.629Z,23.10
2022-12-10T04:53:21.558Z,22.13
2022-12-10T04:55:25.698Z,21.75
2022-12-10T04:57:28.469Z,22.48
2022-12-10T04:59:31.475Z,22.70
2022-12-10T05:01:35.345Z,21.80
2022-12-10T05:03:38.723Z,21.65
2022-12-10T05:05:41.763Z,22.00
2022-12-10T05:07:44.725Z,21.33
2022-12-10T05:09:49.202Z,21.63
2022-12-10T05:11:53.850Z,21.50
2022-12-10T05:13:57.956Z,22.73
2022-12-10T05:16:03.757Z,21.92
2022-12-10T05:18:08.409Z,21.63
2022-12-10T05:20:12.160Z,20.67
2022-12-10T05:22:33.243Z,21.83
2022-12-10T05:24:36.400Z,20.55
2022-12-10T05:26:39.350Z,22.10
2022-12-10T05:28:45.734Z,21.17
2022-12-10T05:30:48.977Z,21.38
2022-12-10T05:32:51.854Z,20.50
2022-12-10T05:34:54.698Z,22.55
2022-12-10T05:36:57.797Z,19.35
2022-12-10T05:39:01.295Z,19.30
2022-12-10T05:41:04.535Z,22.45
2022-12-10T05:43:07.380Z,21.52
2022-12-10T05:45:12.242Z,20.02
2022-12-10T05:47:15.292Z,21.63
2022-12-10T05:49:18.130Z,20.58
2022-12-10T05:51:23.579Z,19.77
2022-12-10T05:53:26.842Z,20.48
2022-12-10T05:55:30.058Z,22.73
2022-12-10T05:57:32.883Z,19.67
2022-12-10T05:59:35.822Z,18.75
2022-12-10T06:01:40.076Z,21.40
2022-12-10T06:03:43.728Z,21.27
2022-12-10T06:05:46.518Z,20.48
2022-12-10T06:07:49.366Z,18.83
2022-12-10T06:09:53.644Z,20.45
2022-12-10T06:11:56.436Z,19.05
2022-12-10T06:13:59.997Z,17.73
2022-12-10T06:16:06.551Z,18.63
2022-12-10T06:18:11.177Z,19.45
2022-12-10T06:20:14.635Z,20.58
2022-12-10T06:22:17.859Z,19.30
2022-12-10T06:24:20.737Z,19.67
2022-12-10T06:26:27.292Z,18.50
2022-12-10T06:28:30.290Z,19.42
2022-12-10T06:30:34.595Z,20.67
2022-12-10T06:32:37.740Z,21.08
2022-12-10T06:34:43.107Z,20.38
2022-12-10T06:36:46.179Z,20.60
2022-12-10T06:38:50.131Z,19.85
2022-12-10T06:40:53.646Z,18.98
2022-12-10T06:42:56.489Z,19.60
2022-12-10T06:44:59.333Z,18.20
2022-12-10T06:47:02.096Z,18.23
2022-12-10T06:49:05.330Z,20.17
2022-12-10T06:51:10.428Z,19.55
2022-12-10T06:53:13.272Z,20.67
2022-12-10T06:55:16.220Z,19.45
2022-12-10T06:57:19.136Z,20.10
2022-12-10T06:59:22.293Z,19.27
2022-12-10T07:01:27.876Z,17.98
2022-12-10T07:03:30.705Z,19.33
2022-12-10T07:05:33.606Z,20.42
2022-12-10T07:07:38.554Z,20.02
2022-12-10T07:11:44.594Z,18.58
2022-12-10T07:13:48.192Z,20.05
2022-12-10T07:15:51.290Z,17.15
2022-12-10T07:17:54.224Z,18.67
2022-12-10T07:19:57.076Z,17.60
2022-12-10T07:22:00.020Z,18.30
2022-12-10T07:24:06.476Z,18.90
2022-12-10T07:26:09.331Z,17.17
2022-12-10T07:28:12.117Z,17.80
2022-12-10T07:30:15.590Z,16.90
2022-12-10T07:32:19.178Z,17.40
2022-12-10T07:34:22.032Z,16.65
2022-12-10T07:36:25.590Z,16.88
2022-12-10T07:38:28.523Z,16.00
2022-12-10T07:40:33.078Z,16.77
2022-12-10T07:42:35.980Z,16.08
2022-12-10T07:44:38.869Z,15.57
2022-12-10T07:46:42.152Z,14.63
2022-12-10T07:48:48.796Z,15.57
2022-12-10T07:50:58.686Z,15.05
2022-12-10T07:53:01.836Z,14.20
2022-12-10T07:55:05.354Z,14.20
2022-12-10T07:57:09.788Z,13.95
2022-12-10T07:59:12.793Z,14.40
2022-12-10T08:01:17.561Z,14.00
2022-12-10T08:05:24.725Z,14.45
2022-12-10T08:07:27.857Z,13.70
2022-12-10T08:09:31.127Z,13.93
2022-12-10T08:11:34.192Z,14.07
2022-12-10T08:13:39.590Z,13.93
2022-12-10T08:15:42.446Z,14.73
2022-12-10T08:17:45.302Z,14.48
2022-12-10T08:19:50.339Z,14.57
2022-12-10T08:23:56.473Z,13.70
2022-12-10T08:25:59.337Z,15.63
2022-12-10T08:28:03.935Z,13.75
2022-12-10T08:30:10.245Z,13.18
2022-12-10T08:32:13.275Z,13.07
2022-12-10T08:34:19.456Z,13.98
2022-12-10T08:36:23.276Z,14.20
2022-12-10T08:38:26.288Z,13.45
2022-12-10T08:40:29.082Z,13.15
2022-12-10T08:42:31.865Z,13.93
2022-12-10T08:44:34.674Z,13.27
2022-12-10T08:46:39.479Z,12.82
2022-12-10T08:48:42.711Z,14.35
2022-12-10T08:50:46.768Z,15.18
2022-12-10T08:52:49.736Z,13.97
2022-12-10T08:54:52.733Z,14.20
2022-12-10T08:56:55.863Z,13.60
2022-12-10T08:58:58.677Z,13.65
2022-12-10T09:01:02.484Z,13.63
2022-12-10T09:03:06.772Z,13.70
2022-12-10T09:05:10.177Z,15.32
2022-12-10T09:07:13.456Z,13.63
2022-12-10T09:09:16.380Z,13.75
2022-12-10T09:11:22.520Z,13.57
2022-12-10T09:13:27.961Z,13.20
2022-12-10T09:15:30.935Z,14.50
2022-12-10T09:17:33.886Z,13.18
2022-12-10T09:19:38.232Z,13.50
2022-12-10T09:21:41.209Z,14.07
2022-12-10T09:23:45.978Z,13.40
2022-12-10T09:25:48.811Z,13.98
2022-12-10T09:27:51.574Z,14.68
2022-12-10T09:29:54.371Z,12.93
2022-12-10T09:31:57.287Z,14.80
2022-12-10T09:34:00.265Z,14.23
2022-12-10T09:36:06.483Z,14.02
2022-12-10T09:38:09.318Z,12.32
2022-12-10T09:40:17.180Z,12.10
2022-12-10T09:42:34.321Z,13.02
2022-12-10T09:44:50.301Z,12.80
2022-12-10T09:46:56.844Z,12.77
2022-12-10T09:49:07.373Z,13.95
2022-12-10T09:51:18.297Z,14.02
2022-12-10T09:53:22.813Z,12.18
2022-12-10T09:55:33.494Z,12.60
2022-12-10T09:57:41.643Z,13.35
2022-12-10T09:59:48.329Z,12.57
2022-12-10T10:01:58.349Z,14.13
2022-12-10T10:04:01.211Z,14.38
2022-12-10T10:06:10.872Z,13.85
2022-12-10T10:08:24.033Z,13.43
2022-12-10T10:10:29.273Z,13.50
2022-12-10T10:12:35.273Z,13.70
2022-12-10T10:14:38.213Z,13.88
2022-12-10T10:16:47.346Z,14.52
2022-12-10T10:18:54.805Z,14.52
2022-12-10T10:20:58.418Z,14.50
2022-12-10T10:23:02.334Z,13.20
2022-12-10T10:25:07.293Z,14.82
2022-12-10T10:27:16.679Z,13.80
2022-12-10T10:29:22.429Z,15.30
2022-12-10T10:31:27.619Z,13.45
2022-12-10T10:33:30.402Z,13.93
2022-12-10T10:35:36.181Z,13.75
2022-12-10T10:37:43.593Z,15.93
2022-12-10T10:39:50.438Z,14.48
2022-12-10T10:41:59.873Z,13.23
2022-12-10T10:44:04.700Z,12.95
2022-12-10T10:46:14.412Z,13.55
2022-12-10T10:48:19.973Z,12.63
2022-12-10T10:50:26.413Z,12.90
2022-12-10T10:52:31.160Z,14.85
2022-12-10T10:54:36.273Z,12.60
2022-12-10T10:56:42.981Z,12.68
2022-12-10T10:58:55.651Z,11.27
2022-12-10T11:01:02.039Z,11.93
2022-12-10T11:03:09.252Z,13.07
2022-12-10T11:05:19.197Z,13.75
2022-12-10T11:07:27.406Z,13.48
2022-12-10T11:09:32.501Z,12.27
2022-12-10T11:13:39.843Z,13.50
2022-12-10T11:15:45.800Z,12.98
2022-12-10T11:17:50.466Z,13.05
2022-12-10T11:20:00.938Z,11.73
2022-12-10T11:22:18.770Z,12.23
2022-12-10T11:24:23.270Z,12.60
2022-12-10T11:28:56.906Z,12.05
2022-12-10T11:31:15.511Z,13.00
2022-12-10T11:33:28.162Z,11.80
2022-12-10T11:35:43.967Z,11.38
2022-12-10T11:37:54.377Z,11.05
2022-12-10T11:40:29.350Z,11.75
2022-12-10T11:42:44.846Z,11.05
2022-12-10T11:47:21.658Z,10.23
2022-12-10T11:49:34.815Z,11.20
2022-12-10T11:51:43.446Z,10.52
2022-12-10T11:54:24.463Z,12.20
2022-12-10T11:56:32.752Z,11.35
2022-12-10T11:58:51.489Z,10.77
2022-12-10T12:01:06.451Z,10.73
2022-12-10T12:05:42.983Z,12.15
2022-12-10T12:07:53.951Z,11.10
2022-12-10T12:10:16.525Z,10.45
2022-12-10T12:12:32.477Z,11.82
2022-12-10T12:14:41.993Z,12.23
2022-12-10T12:16:49.316Z,12.23
2022-12-10T12:19:00.969Z,11.43
2022-12-10T12:21:09.749Z,11.10
2022-12-10T12:23:17.740Z,11.07
2022-12-10T12:25:28.484Z,12.02
2022-12-10T12:27:37.870Z,11.48
2022-12-10T12:29:46.954Z,11.40
2022-12-10T12:31:59.388Z,11.68
2022-12-10T12:34:12.967Z,11.52
2022-12-10T12:36:20.593Z,11.57
2022-12-10T12:38:32.067Z,11.90
2022-12-10T12:40:39.175Z,10.20
2022-12-10T12:42:48.830Z,10.32
2022-12-10T12:45:01.990Z,11.38
2022-12-10T12:47:18.766Z,11.85
2022-12-10T12:49:28.387Z,11.35
2022-12-10T12:51:38.450Z,10.30
2022-12-10T12:53:41.672Z,10.18
2022-12-10T12:55:56.762Z,10.70
2022-12-10T12:58:17.162Z,10.32
2022-12-10T13:00:24.346Z,11.00
2022-12-10T13:02:48.692Z,9.82
2022-12-10T13:04:54.222Z,10.77
2022-12-10T13:07:29.904Z,9.77
2022-12-10T13:09:33.142Z,10.32
2022-12-10T13:11:38.007Z,11.05
2022-12-10T13:13:43.348Z,10.63
2022-12-10T13:15:46.365Z,10.73
2022-12-10T13:18:19.861Z,10.25
2022-12-10T13:20:36.630Z,11.68
2022-12-10T13:22:46.575Z,11.40
2022-12-10T13:25:08.924Z,10.93
2022-12-10T13:27:19.356Z,9.60
2022-12-10T13:29:27.778Z,10.25
2022-12-10T13:31:40.675Z,10.45
2022-12-10T13:33:50.583Z,10.95
2022-12-10T13:36:08.997Z,10.45
2022-12-10T13:38:22.286Z,11.15
2022-12-10T13:40:27.341Z,10.77
2022-12-10T13:42:51.921Z,11.38
2022-12-10T13:45:02.113Z,10.10
2022-12-10T13:47:29.389Z,10.85
2022-12-10T13:49:37.571Z,10.95
2022-12-10T13:51:56.446Z,10.57
2022-12-10T13:54:18.642Z,11.52
2022-12-10T13:56:30.092Z,10.98
2022-12-10T13:58:44.726Z,11.82
2022-12-10T14:00:59.046Z,11.35
2022-12-10T14:03:30.873Z,10.40
2022-12-10T14:05:44.737Z,11.13
2022-12-10T14:07:52.048Z,10.90
2022-12-10T14:09:56.993Z,9.93
2022-12-10T14:12:03.689Z,11.18
2022-12-10T14:14:12.519Z,11.13
2022-12-10T14:16:16.993Z,10.85
2022-12-10T14:18:20.017Z,11.15
2022-12-10T14:20:26.518Z,10.50
2022-12-10T14:22:33.886Z,10.32
2022-12-10T14:24:44.109Z,11.38
2022-12-10T14:26:47.009Z,11.50
2022-12-10T14:28:51.962Z,11.05
2022-12-10T14:33:01.708Z,11.05
2022-12-10T14:35:09.234Z,12.05
2022-12-10T14:37:15.759Z,11.50
2022-12-10T14:39:22.795Z,12.38
2022-12-10T14:41:30.178Z,12.13
2022-12-10T14:43:37.634Z,12.80
2022-12-10T14:45:46.005Z,12.93
2022-12-10T14:47:49.437Z,13.52
2022-12-10T14:49:54.760Z,13.05
2022-12-10T14:51:58.333Z,13.63
2022-12-10T14:54:01.457Z,14.30
2022-12-10T14:56:06.554Z,15.25
2022-12-10T14:58:19.528Z,15.93
2022-12-10T15:00:24.620Z,14.35
2022-12-10T15:02:31.416Z,14.80
2022-12-10T15:04:44.620Z,13.80
2022-12-10T15:06:48.404Z,13.38
2022-12-10T15:08:54.200Z,13.43
2022-12-10T15:11:00.020Z,13.20
2022-12-10T15:13:03.889Z,13.73
2022-12-10T15:15:14.846Z,15.25
2022-12-10T15:17:37.473Z,12.75
2022-12-10T15:19:40.696Z,13.68
2022-12-10T15:21:46.576Z,13.02
2022-12-10T15:23:49.706Z,13.32
2022-12-10T15:26:00.053Z,13.05
2022-12-10T15:28:03.334Z,11.35
2022-12-10T15:30:26.187Z,12.13
2022-12-10T15:32:30.419Z,11.73
2022-12-10T15:34:39.877Z,13.05
2022-12-10T15:36:45.867Z,12.38
2022-12-10T15:38:49.584Z,12.07
2022-12-10T15:40:52.842Z,12.75
2022-12-10T15:43:01.090Z,10.70
2022-12-10T15:45:13.012Z,12.50
2022-12-10T15:47:22.748Z,11.60
2022-12-10T15:49:25.845Z,12.00
2022-12-10T15:51:28.641Z,11.40
2022-12-10T15:53:39.388Z,10.52
2022-12-10T15:55:42.204Z,11.85
2022-12-10T15:57:49.524Z,11.35
2022-12-10T15:59:54.609Z,11.52
2022-12-10T16:01:58.278Z,11.57
2022-12-10T16:04:02.523Z,12.18
2022-12-10T16:06:05.479Z,12.10
2022-12-10T16:08:14.960Z,11.82
2022-12-10T16:10:20.406Z,11.75
2022-12-10T16:12:23.238Z,12.23
2022-12-10T16:14:26.214Z,10.73
2022-12-10T16:16:29.123Z,12.13
2022-12-10T16:18:34.474Z,11.85
2022-12-10T16:20:39.211Z,11.55
2022-12-10T16:22:41.991Z,12.45
2022-12-10T16:24:45.386Z,12.18
2022-12-10T16:26:48.408Z,12.98
2022-12-10T16:28:52.715Z,13.13
2022-12-10T16:30:57.517Z,14.18
2022-12-10T16:33:00.625Z,12.38
2022-12-10T16:35:03.483Z,11.23
2022-12-10T16:37:11.321Z,12.98
2022-12-10T16:39:15.137Z,12.82
2022-12-10T16:41:20.982Z,12.05
2022-12-10T16:43:26.597Z,11.25
2022-12-10T16:45:32.920Z,12.63
2022-12-10T16:47:35.671Z,12.48
2022-12-10T16:49:38.455Z,11.98
2022-12-10T16:51:44.017Z,12.48
2022-12-10T16:53:48.181Z,13.77
2022-12-10T16:55:51.129Z,12.73
2022-12-10T16:57:55.449Z,13.25
2022-12-10T16:59:58.188Z,13.23
2022-12-10T17:02:01.112Z,12.63
2022-12-10T17:04:04.295Z,12.48
2022-12-10T17:06:07.819Z,13.23
2022-12-10T17:08:11.052Z,13.93
2022-12-10T17:10:15.802Z,14.35
2022-12-10T17:12:18.237Z,12.50
2022-12-10T17:14:24.654Z,13.15
2022-12-10T17:16:27.675Z,12.30
2022-12-10T17:18:30.436Z,12.40
2022-12-10T17:20:33.499Z,13.75
2022-12-10T17:22:36.390Z,12.82
2022-12-10T17:24:39.354Z,14.27
2022-12-10T17:26:46.460Z,12.60
2022-12-10T17:28:49.491Z,13.18
2022-12-10T17:30:54.042Z,13.35
2022-12-10T17:32:57.018Z,13.80
2022-12-10T17:35:00.041Z,15.23
2022-12-10T17:37:03.048Z,15.45
2022-12-10T17:39:06.130Z,13.07
2022-12-10T17:41:11.131Z,13.90
2022-12-10T17:45:22.478Z,13.77
2022-12-10T17:47:28.954Z,13.90
2022-12-10T17:49:33.345Z,15.73
2022-12-10T17:51:36.240Z,15.30
2022-12-10T17:53:39.083Z,14.85
2022-12-10T17:55:48.189Z,27.48
2022-12-10T17:57:51.821Z,18.45
2022-12-10T17:59:56.035Z,16.65
2022-12-10T18:01:58.927Z,14.23
2022-12-10T18:04:01.943Z,13.93
2022-12-10T18:06:05.186Z,14.73
2022-12-10T18:08:08.349Z,14.93
2022-12-10T18:10:17.782Z,14.82
2022-12-10T18:12:20.664Z,16.10
2022-12-10T18:14:23.517Z,16.30
2022-12-10T18:16:31.991Z,18.50
2022-12-10T18:18:34.863Z,15.27
2022-12-10T18:20:40.595Z,15.45
2022-12-10T18:22:43.444Z,16.02
2022-12-10T18:24:46.468Z,16.08
2022-12-10T18:26:49.291Z,15.55
2022-12-10T18:28:56.366Z,16.50
2022-12-10T18:31:02.718Z,15.48
2022-12-10T18:33:07.125Z,15.80
2022-12-10T18:35:11.301Z,18.75
2022-12-10T18:37:14.538Z,17.65
2022-12-10T18:39:21.351Z,17.55
2022-12-10T18:41:24.868Z,18.40
2022-12-10T18:43:27.666Z,15.57
2022-12-10T18:45:30.472Z,17.35
2022-12-10T18:47:33.364Z,16.83
2022-12-10T18:49:38.246Z,16.70
2022-12-10T18:51:41.558Z,16.83
2022-12-10T18:53:46.003Z,17.58
2022-12-10T18:55:48.821Z,16.35
2022-12-10T18:58:02.493Z,18.55
2022-12-10T19:00:14.054Z,17.05
2022-12-10T19:02:16.932Z,17.55
2022-12-10T19:04:19.789Z,14.88
2022-12-10T19:06:26.540Z,16.08
2022-12-10T19:08:30.021Z,26.77
2022-12-10T19:10:33.227Z,23.60
2022-12-10T19:12:36.026Z,20.42
2022-12-10T19:14:38.811Z,19.55
2022-12-10T19:16:42.223Z,19.90
2022-12-10T19:18:46.244Z,17.88
2022-12-10T19:20:52.029Z,18.63
2022-12-10T19:23:00.104Z,18.08
2022-12-10T19:25:02.925Z,16.05
2022-12-10T19:27:05.830Z,17.92
2022-12-10T19:29:14.239Z,18.13
2022-12-10T19:31:17.080Z,17.70
2022-12-10T19:33:19.958Z,16.90
2022-12-10T19:35:26.320Z,17.65
2022-12-10T19:37:31.341Z,15.48
2022-12-10T19:41:38.525Z,16.05
2022-12-10T19:43:41.618Z,16.00
2022-12-10T19:45:44.443Z,17.15
2022-12-10T19:47:47.435Z,16.15
2022-12-10T19:49:50.355Z,17.25
2022-12-10T19:51:53.191Z,16.02
2022-12-10T19:53:56.243Z,16.10
2022-12-10T19:56:00.490Z,17.25
2022-12-10T19:58:03.306Z,17.13
2022-12-10T20:00:10.698Z,16.90
2022-12-10T20:02:13.524Z,17.40
2022-12-10T20:04:17.873Z,16.55
2022-12-10T20:06:24.920Z,18.48
2022-12-10T20:08:27.879Z,17.08
2022-12-10T20:10:31.237Z,17.02
2022-12-10T20:12:36.608Z,17.50
2022-12-10T20:14:39.827Z,17.25
2022-12-10T20:16:43.362Z,16.13
2022-12-10T20:18:46.700Z,15.05
2022-12-10T20:20:50.365Z,16.27
2022-12-10T20:22:53.295Z,14.98
2022-12-10T20:24:56.091Z,17.05
2022-12-10T20:26:58.908Z,16.67
2022-12-10T20:29:03.745Z,18.23
2022-12-10T20:31:07.027Z,18.30
2022-12-10T20:33:44.154Z,18.58
2022-12-10T20:35:33.415Z,18.35
2022-12-10T20:37:36.185Z,18.52
2022-12-10T20:39:38.992Z,20.17
2022-12-10T20:41:41.799Z,21.42
2022-12-10T20:43:45.289Z,24.40
2022-12-10T20:45:49.418Z,21.00
2022-12-10T20:47:52.258Z,20.55
2022-12-10T20:49:55.085Z,19.90
2022-12-10T20:51:57.827Z,18.15
2022-12-10T20:54:00.956Z,20.65
2022-12-10T20:56:03.844Z,18.95
2022-12-10T20:58:06.640Z,19.48
2022-12-10T21:00:16.757Z,19.38
2022-12-10T21:02:21.207Z,20.83
2022-12-10T21:04:24.483Z,20.30
2022-12-10T21:06:30.283Z,20.98
2022-12-10T21:08:33.960Z,19.05
2022-12-10T21:10:56.496Z,19.70
2022-12-10T21:12:59.359Z,21.10
2022-12-10T21:15:06.921Z,21.40
2022-12-10T21:17:12.434Z,18.08
2022-12-10T21:19:18.337Z,19.83
2022-12-10T21:21:22.215Z,20.10
2022-12-10T21:23:27.417Z,23.13
2022-12-10T21:25:32.877Z,22.02
2022-12-10T21:27:35.758Z,20.30
2022-12-10T21:29:38.575Z,19.63
2022-12-10T21:31:41.629Z,19.45
2022-12-10T21:33:44.841Z,20.42
2022-12-10T21:35:50.320Z,20.60
2022-12-10T21:37:53.095Z,21.30
2022-12-10T21:39:57.492Z,20.95
2022-12-10T21:42:17.959Z,22.60
2022-12-10T21:44:20.997Z,23.30
2022-12-10T21:46:24.144Z,23.17
2022-12-10T21:48:28.232Z,22.40
2022-12-10T21:50:31.816Z,22.45
2022-12-10T21:52:35.928Z,22.60
2022-12-10T21:54:38.725Z,24.00
2022-12-10T21:56:41.525Z,23.73
2022-12-10T21:58:44.571Z,22.08
2022-12-10T22:00:47.542Z,25.58
2022-12-10T22:02:50.382Z,21.55
2022-12-10T22:04:53.239Z,22.73
2022-12-10T22:06:55.990Z,21.23
2022-12-10T22:09:00.214Z,22.20
2022-12-10T22:11:05.934Z,21.83
2022-12-10T22:13:11.340Z,20.98
2022-12-10T22:15:15.104Z,20.17
2022-12-10T22:17:18.026Z,21.98
2022-12-10T22:19:20.803Z,20.30
2022-12-10T22:21:24.160Z,21.27
2022-12-10T22:23:28.418Z,21.50
2022-12-10T22:25:32.563Z,21.33
2022-12-10T22:27:35.712Z,20.60
2022-12-10T22:29:38.585Z,20.52
2022-12-10T22:31:42.121Z,21.13
2022-12-10T22:35:49.031Z,18.42
2022-12-10T22:37:52.326Z,19.38
2022-12-10T22:39:55.421Z,19.98
2022-12-10T22:41:59.653Z,20.08
2022-12-10T22:44:02.638Z,20.50
2022-12-10T22:46:05.900Z,20.85
2022-12-10T22:48:08.949Z,20.27
2022-12-10T22:50:12.277Z,20.73
2022-12-10T22:52:15.245Z,19.65
2022-12-10T22:54:18.122Z,20.35
2022-12-10T22:56:20.900Z,20.65
2022-12-10T22:58:25.105Z,20.10
2022-12-10T23:00:27.977Z,21.27
2022-12-10T23:02:30.869Z,20.77
2022-12-10T23:04:34.364Z,20.80
2022-12-10T23:06:37.239Z,21.00
2022-12-10T23:08:40.250Z,20.02
2022-12-10T23:10:43.360Z,19.88
2022-12-10T23:13:03.687Z,20.67
2022-12-10T23:15:09.294Z,20.70
2022-12-10T23:17:12.319Z,19.15
2022-12-10T23:19:15.383Z,20.15
2022-12-10T23:21:20.963Z,20.77
2022-12-10T23:23:23.852Z,18.63
2022-12-10T23:25:27.074Z,19.73
2022-12-10T23:27:29.912Z,19.50
2022-12-10T23:29:32.800Z,21.92
2022-12-10T23:31:37.281Z,19.52
2022-12-10T23:33:40.467Z,19.63
2022-12-10T23:35:44.197Z,20.63
2022-12-10T23:37:47.588Z,19.50
2022-12-10T23:39:50.607Z,21.27
2022-12-10T23:41:53.642Z,21.55
2022-12-10T23:43:57.573Z,19.42
2022-12-10T23:46:01.034Z,23.55
2022-12-10T23:48:05.818Z,21.13
2022-12-10T23:50:09.201Z,23.25
2022-12-10T23:52:12.008Z,22.85
2022-12-10T23:54:14.876Z,24.25
2022-12-10T23:56:19.939Z,23.38
2022-12-10T23:58:23.222Z,24.35
